Berkeley Springs, WV

4:19 AM EDT on August 04, 2015 (GMT -0400)
Coolfont Mountainside | | Change Station
CLOSE
Current Station
Personal Weather Station
Location: Berkeley Springs, WV
Elevation: 1053 ft
Nearby Weather Stations

Elev 1053 ft 39.59 °N, 78.27 °W | Updated 10 minutes ago

Partly Cloudy
Partly Cloudy
68.7 °F
Feels Like 68.7 °F
N
0.0
Wind Variable Wind from ENE
Gusts 0.0 mph

Today
High -- | Low -- °F
--% Chance of Precip.
Yesterday
High -- | Low -- °F
Precip. -- in
6:14 AM 8:22 PM
Waning Gibbous, 80% visible
Pressure 29.92 in
Visibility 4.0 miles
Clouds Few 8000 ft
Overcast 10000 ft
Dew Point 66 °F
Humidity 91%
Rainfall 0.25 in
Snow Depth Not available.
UV 0 out of 12
Pollen 6.90 out of 12
Air Quality Not available.
Flu Activity Not available.
METAR KMRB 040753Z AUTO 25014KT 4SM RA BR FEW080 OVC100 21/19 A2993 RMK AO2 RAB11 PRESRR SLP131 P0003 T02110189 TSNO

More Conditions Fewer Conditions

Pressure 29.92 in
Visibility 4.0 miles
Clouds Few 8000 ft
Overcast 10000 ft
Dew Point 66 °F
Humidity 91%
Rainfall 0.25 in
Snow Depth Not available.
UV 0 out of 12
Pollen 6.90 out of 12
Air Quality Not available.
Flu Activity Not available.
METAR KMRB 040753Z AUTO 25014KT 4SM RA BR FEW080 OVC100 21/19 A2993 RMK AO2 RAB11 PRESRR SLP131 P0003 T02110189 TSNO

More Conditions Fewer Conditions

10-Day Weather Forecast

×

Almanac

Astronomy

Aug. 04, 2015 Rise Set
Actual Time
Civil Twilight
Nautical Twilight
Astronomical Twilight
Moon
Length of Visible Light
Length of Day
Tomorrow will be .
, % of the Moon is Illuminated

Today's Extremes

State Highs State Lows

Community

WunderPhotos

Upload Photos

1,843,877 photos uploaded!

WunderBlogs® & News

Nearby

Air Quality

  Air Quality AQ Index Pollutant
Not available.

Snow Depth

Station Depth Elevation

Earthquake Activity

City Distance Mag. Time & Date
Minimum magnitude displayed is 2.5.

Coastal Water Temperatures

Place Temperature

Stations

Nearby Weather Stations

Station Location Temp. Windchill Dew Point Humidity Wind Precip. Elev Updated Type